Weather at Kraków John Paul II International Airport

Public forecast

Using degrees Celsius for public forecast. Weather courtesy of forecast.io.

Current aviation weather report (METAR) for Kraków John Paul II International Airport

Retrieved 2022/08/13 17:00 UTC (25 minutes ago):

EPKK 131700Z 04003KT 9999 FEW016CB SCT033 19/18 Q1014 RETSRA

Aviation forecast (TAF) for Kraków John Paul II International Airport

Retrieved 2022/08/13 15:37 UTC (2 hours ago):

TAF EPKK 131430Z 1315/1415 08006KT 9999 BKN030 TEMPO 1315/1320 4000 SHRA BKN008 BKN014CB PROB30 TEMPO 1315/1318 TSRA BECMG 1320/1323 3500 BR BKN006 TEMPO 1320/1407 SHRA BKN004 BKN008CB BECMG 1407/1409 9999 BKN020 PROB40 TEMPO 1412/1415 3000 TSRA BKN020CB